sensor_id;sensor_type;location;lat;lon;timestamp;P1;durP1;ratioP1;P2;durP2;ratioP2
13218;SDS011;6674;49.152;11.918;2023-07-13T00:01:15;4.73;;;4.30;;
13218;SDS011;6674;49.152;11.918;2023-07-13T00:03:43;4.83;;;4.33;;
13218;SDS011;6674;49.152;11.918;2023-07-13T00:06:09;4.50;;;4.10;;
13218;SDS011;6674;49.152;11.918;2023-07-13T00:08:36;6.53;;;4.20;;
13218;SDS011;6674;49.152;11.918;2023-07-13T00:11:04;5.17;;;4.37;;
13218;SDS011;6674;49.152;11.918;2023-07-13T00:13:31;5.13;;;4.63;;
13218;SDS011;6674;49.152;11.918;2023-07-13T00:15:58;5.13;;;4.57;;
13218;SDS011;6674;49.152;11.918;2023-07-13T00:18:26;8.23;;;5.80;;
13218;SDS011;6674;49.152;11.918;2023-07-13T00:20:55;6.83;;;5.17;;
13218;SDS011;6674;49.152;11.918;2023-07-13T00:23:30;6.70;;;5.30;;
13218;SDS011;6674;49.152;11.918;2023-07-13T00:25:58;8.00;;;6.03;;
13218;SDS011;6674;49.152;11.918;2023-07-13T00:28:27;6.27;;;5.67;;
13218;SDS011;6674;49.152;11.918;2023-07-13T00:30:53;7.43;;;5.60;;
13218;SDS011;6674;49.152;11.918;2023-07-13T00:33:20;6.00;;;5.40;;
13218;SDS011;6674;49.152;11.918;2023-07-13T00:35:47;6.63;;;6.03;;
13218;SDS011;6674;49.152;11.918;2023-07-13T00:38:14;6.37;;;5.77;;
13218;SDS011;6674;49.152;11.918;2023-07-13T00:40:41;5.93;;;5.23;;
13218;SDS011;6674;49.152;11.918;2023-07-13T00:43:09;7.17;;;6.40;;
13218;SDS011;6674;49.152;11.918;2023-07-13T00:48:53;8.20;;;7.43;;
13218;SDS011;6674;49.152;11.918;2023-07-13T00:51:25;9.17;;;7.03;;
13218;SDS011;6674;49.152;11.918;2023-07-13T00:53:57;7.87;;;7.17;;
13218;SDS011;6674;49.152;11.918;2023-07-13T00:56:26;8.10;;;6.70;;
13218;SDS011;6674;49.152;11.918;2023-07-13T00:58:53;7.17;;;6.57;;
13218;SDS011;6674;49.152;11.918;2023-07-13T01:01:21;7.53;;;6.93;;
13218;SDS011;6674;49.152;11.918;2023-07-13T01:03:47;7.20;;;6.53;;
13218;SDS011;6674;49.152;11.918;2023-07-13T01:06:15;7.93;;;7.07;;
13218;SDS011;6674;49.152;11.918;2023-07-13T01:08:42;8.03;;;7.33;;
13218;SDS011;6674;49.152;11.918;2023-07-13T01:11:09;7.90;;;7.10;;
13218;SDS011;6674;49.152;11.918;2023-07-13T01:13:35;9.07;;;6.97;;
13218;SDS011;6674;49.152;11.918;2023-07-13T01:16:03;7.90;;;7.20;;
13218;SDS011;6674;49.152;11.918;2023-07-13T01:18:37;8.27;;;7.40;;
13218;SDS011;6674;49.152;11.918;2023-07-13T01:21:05;8.80;;;7.40;;
13218;SDS011;6674;49.152;11.918;2023-07-13T01:26:53;8.17;;;7.37;;
13218;SDS011;6674;49.152;11.918;2023-07-13T01:29:20;6.77;;;6.17;;
13218;SDS011;6674;49.152;11.918;2023-07-13T01:31:47;7.07;;;6.23;;
13218;SDS011;6674;49.152;11.918;2023-07-13T01:34:13;7.40;;;6.70;;
13218;SDS011;6674;49.152;11.918;2023-07-13T01:36:41;8.03;;;7.23;;
13218;SDS011;6674;49.152;11.918;2023-07-13T01:39:08;6.83;;;6.33;;
13218;SDS011;6674;49.152;11.918;2023-07-13T01:41:34;7.10;;;6.40;;
13218;SDS011;6674;49.152;11.918;2023-07-13T01:44:01;7.70;;;6.20;;
13218;SDS011;6674;49.152;11.918;2023-07-13T01:46:27;6.00;;;5.40;;
13218;SDS011;6674;49.152;11.918;2023-07-13T01:48:54;6.90;;;5.87;;
13218;SDS011;6674;49.152;11.918;2023-07-13T01:51:21;6.57;;;5.97;;
13218;SDS011;6674;49.152;11.918;2023-07-13T01:53:49;6.30;;;5.63;;
13218;SDS011;6674;49.152;11.918;2023-07-13T01:56:16;6.93;;;5.47;;
13218;SDS011;6674;49.152;11.918;2023-07-13T01:58:42;5.23;;;4.73;;
13218;SDS011;6674;49.152;11.918;2023-07-13T02:01:10;5.50;;;5.00;;
13218;SDS011;6674;49.152;11.918;2023-07-13T02:03:37;5.40;;;4.90;;
13218;SDS011;6674;49.152;11.918;2023-07-13T02:06:04;4.97;;;4.50;;
13218;SDS011;6674;49.152;11.918;2023-07-13T02:08:30;5.13;;;4.63;;
13218;SDS011;6674;49.152;11.918;2023-07-13T02:10:59;5.20;;;4.60;;
13218;SDS011;6674;49.152;11.918;2023-07-13T02:13:26;4.37;;;3.97;;
13218;SDS011;6674;49.152;11.918;2023-07-13T02:15:53;4.73;;;4.03;;
13218;SDS011;6674;49.152;11.918;2023-07-13T02:18:19;4.20;;;3.90;;
13218;SDS011;6674;49.152;11.918;2023-07-13T02:20:46;4.97;;;3.77;;
13218;SDS011;6674;49.152;11.918;2023-07-13T02:23:13;4.03;;;3.60;;
13218;SDS011;6674;49.152;11.918;2023-07-13T02:25:40;4.47;;;4.07;;
13218;SDS011;6674;49.152;11.918;2023-07-13T02:28:07;4.90;;;4.07;;
13218;SDS011;6674;49.152;11.918;2023-07-13T02:30:34;5.17;;;4.30;;
13218;SDS011;6674;49.152;11.918;2023-07-13T02:33:01;4.13;;;3.80;;
13218;SDS011;6674;49.152;11.918;2023-07-13T02:35:28;4.53;;;4.10;;
13218;SDS011;6674;49.152;11.918;2023-07-13T02:37:55;6.63;;;4.20;;
13218;SDS011;6674;49.152;11.918;2023-07-13T02:40:21;7.30;;;4.40;;
13218;SDS011;6674;49.152;11.918;2023-07-13T02:42:48;6.10;;;4.40;;
13218;SDS011;6674;49.152;11.918;2023-07-13T02:45:16;5.03;;;4.20;;
13218;SDS011;6674;49.152;11.918;2023-07-13T02:47:43;4.40;;;4.07;;
13218;SDS011;6674;49.152;11.918;2023-07-13T02:50:10;6.07;;;4.60;;
13218;SDS011;6674;49.152;11.918;2023-07-13T02:52:36;6.70;;;4.60;;
13218;SDS011;6674;49.152;11.918;2023-07-13T02:55:03;4.90;;;4.50;;
13218;SDS011;6674;49.152;11.918;2023-07-13T02:57:30;4.73;;;4.20;;
13218;SDS011;6674;49.152;11.918;2023-07-13T02:59:58;4.90;;;4.23;;
13218;SDS011;6674;49.152;11.918;2023-07-13T03:02:26;6.57;;;4.63;;
13218;SDS011;6674;49.152;11.918;2023-07-13T03:04:53;5.73;;;4.53;;
13218;SDS011;6674;49.152;11.918;2023-07-13T03:07:20;4.60;;;4.20;;
13218;SDS011;6674;49.152;11.918;2023-07-13T03:09:47;4.93;;;4.40;;
13218;SDS011;6674;49.152;11.918;2023-07-13T03:12:13;4.50;;;4.10;;
13218;SDS011;6674;49.152;11.918;2023-07-13T03:14:40;4.73;;;4.33;;
13218;SDS011;6674;49.152;11.918;2023-07-13T03:17:06;5.20;;;4.70;;
13218;SDS011;6674;49.152;11.918;2023-07-13T03:19:34;5.93;;;4.53;;
13218;SDS011;6674;49.152;11.918;2023-07-13T03:22:01;4.47;;;4.07;;
13218;SDS011;6674;49.152;11.918;2023-07-13T03:24:27;5.77;;;4.63;;
13218;SDS011;6674;49.152;11.918;2023-07-13T03:26:54;7.00;;;4.93;;
13218;SDS011;6674;49.152;11.918;2023-07-13T03:29:21;6.77;;;4.27;;
13218;SDS011;6674;49.152;11.918;2023-07-13T03:31:47;6.53;;;4.50;;
13218;SDS011;6674;49.152;11.918;2023-07-13T03:34:14;4.87;;;4.47;;
13218;SDS011;6674;49.152;11.918;2023-07-13T03:36:42;4.33;;;3.93;;
13218;SDS011;6674;49.152;11.918;2023-07-13T03:39:09;4.83;;;4.40;;
13218;SDS011;6674;49.152;11.918;2023-07-13T03:41:35;5.80;;;4.40;;
13218;SDS011;6674;49.152;11.918;2023-07-13T03:44:02;5.20;;;4.40;;
13218;SDS011;6674;49.152;11.918;2023-07-13T03:46:29;7.10;;;4.30;;
13218;SDS011;6674;49.152;11.918;2023-07-13T03:48:56;4.13;;;3.83;;
13218;SDS011;6674;49.152;11.918;2023-07-13T03:51:23;4.40;;;3.80;;
13218;SDS011;6674;49.152;11.918;2023-07-13T03:53:51;6.73;;;3.87;;
13218;SDS011;6674;49.152;11.918;2023-07-13T03:56:18;6.30;;;4.10;;
13218;SDS011;6674;49.152;11.918;2023-07-13T03:58:46;4.80;;;4.30;;
13218;SDS011;6674;49.152;11.918;2023-07-13T04:01:14;6.03;;;4.23;;
13218;SDS011;6674;49.152;11.918;2023-07-13T04:03:42;5.77;;;3.97;;
13218;SDS011;6674;49.152;11.918;2023-07-13T04:06:13;4.60;;;3.83;;
13218;SDS011;6674;49.152;11.918;2023-07-13T04:08:46;4.00;;;3.70;;
13218;SDS011;6674;49.152;11.918;2023-07-13T04:11:16;4.70;;;3.63;;
13218;SDS011;6674;49.152;11.918;2023-07-13T04:13:43;3.83;;;3.50;;
13218;SDS011;6674;49.152;11.918;2023-07-13T04:16:10;5.53;;;3.80;;
13218;SDS011;6674;49.152;11.918;2023-07-13T04:18:37;3.93;;;3.50;;
13218;SDS011;6674;49.152;11.918;2023-07-13T04:21:03;5.10;;;3.50;;
13218;SDS011;6674;49.152;11.918;2023-07-13T04:23:30;4.50;;;3.70;;
13218;SDS011;6674;49.152;11.918;2023-07-13T04:25:56;3.83;;;3.50;;
13218;SDS011;6674;49.152;11.918;2023-07-13T04:28:25;3.80;;;3.40;;
13218;SDS011;6674;49.152;11.918;2023-07-13T04:30:52;4.33;;;3.50;;
13218;SDS011;6674;49.152;11.918;2023-07-13T04:33:19;4.23;;;3.47;;
13218;SDS011;6674;49.152;11.918;2023-07-13T04:35:47;4.50;;;3.00;;
13218;SDS011;6674;49.152;11.918;2023-07-13T04:38:14;4.77;;;2.90;;
13218;SDS011;6674;49.152;11.918;2023-07-13T04:40:42;4.27;;;3.23;;
13218;SDS011;6674;49.152;11.918;2023-07-13T04:43:09;2.97;;;2.63;;
13218;SDS011;6674;49.152;11.918;2023-07-13T04:45:38;4.13;;;2.90;;
13218;SDS011;6674;49.152;11.918;2023-07-13T04:48:05;3.47;;;2.90;;
13218;SDS011;6674;49.152;11.918;2023-07-13T04:50:32;2.97;;;2.67;;
13218;SDS011;6674;49.152;11.918;2023-07-13T04:52:59;3.90;;;2.70;;
13218;SDS011;6674;49.152;11.918;2023-07-13T04:55:25;3.70;;;2.70;;
13218;SDS011;6674;49.152;11.918;2023-07-13T04:57:55;3.17;;;2.43;;
13218;SDS011;6674;49.152;11.918;2023-07-13T05:00:24;4.00;;;2.67;;
13218;SDS011;6674;49.152;11.918;2023-07-13T05:02:53;3.10;;;2.70;;
13218;SDS011;6674;49.152;11.918;2023-07-13T05:05:21;3.93;;;2.60;;
13218;SDS011;6674;49.152;11.918;2023-07-13T05:07:47;4.53;;;3.03;;
13218;SDS011;6674;49.152;11.918;2023-07-13T05:10:14;2.63;;;2.40;;
13218;SDS011;6674;49.152;11.918;2023-07-13T05:12:41;2.60;;;2.40;;
13218;SDS011;6674;49.152;11.918;2023-07-13T05:15:08;2.97;;;2.37;;
13218;SDS011;6674;49.152;11.918;2023-07-13T05:17:35;3.00;;;2.73;;
13218;SDS011;6674;49.152;11.918;2023-07-13T05:20:05;2.77;;;2.50;;
13218;SDS011;6674;49.152;11.918;2023-07-13T05:22:32;2.60;;;2.37;;
13218;SDS011;6674;49.152;11.918;2023-07-13T05:25:00;3.23;;;2.17;;
13218;SDS011;6674;49.152;11.918;2023-07-13T05:27:26;5.60;;;3.33;;
13218;SDS011;6674;49.152;11.918;2023-07-13T05:29:53;4.33;;;2.40;;
13218;SDS011;6674;49.152;11.918;2023-07-13T05:32:20;2.90;;;2.70;;
13218;SDS011;6674;49.152;11.918;2023-07-13T05:34:46;3.60;;;2.30;;
13218;SDS011;6674;49.152;11.918;2023-07-13T05:37:14;5.30;;;2.40;;
13218;SDS011;6674;49.152;11.918;2023-07-13T05:39:41;2.90;;;2.40;;
13218;SDS011;6674;49.152;11.918;2023-07-13T05:42:07;2.83;;;2.40;;
13218;SDS011;6674;49.152;11.918;2023-07-13T05:44:34;3.30;;;2.23;;
13218;SDS011;6674;49.152;11.918;2023-07-13T05:47:01;2.83;;;2.37;;
13218;SDS011;6674;49.152;11.918;2023-07-13T05:49:27;3.50;;;2.23;;
13218;SDS011;6674;49.152;11.918;2023-07-13T05:51:55;3.07;;;2.40;;
13218;SDS011;6674;49.152;11.918;2023-07-13T05:54:23;2.60;;;2.17;;
13218;SDS011;6674;49.152;11.918;2023-07-13T05:56:50;2.67;;;2.30;;
13218;SDS011;6674;49.152;11.918;2023-07-13T05:59:17;2.20;;;2.10;;
13218;SDS011;6674;49.152;11.918;2023-07-13T06:01:44;2.73;;;2.40;;
13218;SDS011;6674;49.152;11.918;2023-07-13T06:04:10;3.73;;;2.30;;
13218;SDS011;6674;49.152;11.918;2023-07-13T06:06:37;2.47;;;2.00;;
13218;SDS011;6674;49.152;11.918;2023-07-13T06:09:04;3.67;;;2.30;;
13218;SDS011;6674;49.152;11.918;2023-07-13T06:11:32;2.20;;;2.00;;
13218;SDS011;6674;49.152;11.918;2023-07-13T06:14:01;2.33;;;2.10;;
13218;SDS011;6674;49.152;11.918;2023-07-13T06:16:29;2.40;;;2.20;;
13218;SDS011;6674;49.152;11.918;2023-07-13T06:18:55;2.43;;;2.23;;
13218;SDS011;6674;49.152;11.918;2023-07-13T06:21:22;2.13;;;1.90;;
13218;SDS011;6674;49.152;11.918;2023-07-13T06:23:50;2.20;;;2.00;;
13218;SDS011;6674;49.152;11.918;2023-07-13T06:26:17;2.67;;;2.30;;
13218;SDS011;6674;49.152;11.918;2023-07-13T06:28:46;2.37;;;2.17;;
13218;SDS011;6674;49.152;11.918;2023-07-13T06:31:13;2.47;;;2.10;;
13218;SDS011;6674;49.152;11.918;2023-07-13T06:33:40;3.10;;;2.27;;
13218;SDS011;6674;49.152;11.918;2023-07-13T06:36:07;2.40;;;2.10;;
13218;SDS011;6674;49.152;11.918;2023-07-13T06:38:35;2.63;;;1.80;;
13218;SDS011;6674;49.152;11.918;2023-07-13T06:41:02;3.13;;;2.03;;
13218;SDS011;6674;49.152;11.918;2023-07-13T06:43:29;3.50;;;2.23;;
13218;SDS011;6674;49.152;11.918;2023-07-13T06:45:58;2.00;;;1.90;;
13218;SDS011;6674;49.152;11.918;2023-07-13T06:48:25;3.33;;;2.20;;
13218;SDS011;6674;49.152;11.918;2023-07-13T06:50:51;2.77;;;2.07;;
13218;SDS011;6674;49.152;11.918;2023-07-13T06:53:19;2.50;;;1.97;;
13218;SDS011;6674;49.152;11.918;2023-07-13T06:55:46;2.10;;;1.90;;
13218;SDS011;6674;49.152;11.918;2023-07-13T06:58:14;2.67;;;1.83;;
13218;SDS011;6674;49.152;11.918;2023-07-13T07:00:41;1.80;;;1.70;;
13218;SDS011;6674;49.152;11.918;2023-07-13T07:03:09;1.90;;;1.77;;
13218;SDS011;6674;49.152;11.918;2023-07-13T07:05:36;2.97;;;2.20;;
13218;SDS011;6674;49.152;11.918;2023-07-13T07:08:03;2.60;;;2.00;;
13218;SDS011;6674;49.152;11.918;2023-07-13T07:10:30;2.37;;;1.60;;
13218;SDS011;6674;49.152;11.918;2023-07-13T07:12:57;2.37;;;1.83;;
13218;SDS011;6674;49.152;11.918;2023-07-13T07:15:24;2.47;;;2.10;;
13218;SDS011;6674;49.152;11.918;2023-07-13T07:17:51;3.07;;;2.00;;
13218;SDS011;6674;49.152;11.918;2023-07-13T07:20:19;2.40;;;2.10;;
13218;SDS011;6674;49.152;11.918;2023-07-13T07:22:46;2.13;;;1.90;;
13218;SDS011;6674;49.152;11.918;2023-07-13T07:25:13;2.80;;;2.60;;
13218;SDS011;6674;49.152;11.918;2023-07-13T07:27:39;2.30;;;2.07;;
13218;SDS011;6674;49.152;11.918;2023-07-13T07:30:07;3.37;;;2.10;;
13218;SDS011;6674;49.152;11.918;2023-07-13T07:32:34;2.63;;;1.77;;
13218;SDS011;6674;49.152;11.918;2023-07-13T07:35:01;2.80;;;2.03;;
13218;SDS011;6674;49.152;11.918;2023-07-13T07:37:29;3.30;;;2.20;;
13218;SDS011;6674;49.152;11.918;2023-07-13T07:39:55;3.47;;;1.90;;
13218;SDS011;6674;49.152;11.918;2023-07-13T07:42:22;2.40;;;2.00;;
13218;SDS011;6674;49.152;11.918;2023-07-13T07:44:49;3.10;;;1.80;;
13218;SDS011;6674;49.152;11.918;2023-07-13T07:47:15;2.10;;;1.90;;
13218;SDS011;6674;49.152;11.918;2023-07-13T07:49:42;2.67;;;1.87;;
13218;SDS011;6674;49.152;11.918;2023-07-13T07:52:09;3.87;;;2.03;;
13218;SDS011;6674;49.152;11.918;2023-07-13T07:54:37;2.40;;;1.50;;
13218;SDS011;6674;49.152;11.918;2023-07-13T07:57:04;2.50;;;2.27;;
13218;SDS011;6674;49.152;11.918;2023-07-13T07:59:31;3.37;;;1.97;;
13218;SDS011;6674;49.152;11.918;2023-07-13T08:01:58;2.30;;;1.63;;
13218;SDS011;6674;49.152;11.918;2023-07-13T08:04:24;3.03;;;1.70;;
13218;SDS011;6674;49.152;11.918;2023-07-13T08:06:52;3.33;;;2.03;;
13218;SDS011;6674;49.152;11.918;2023-07-13T08:09:21;2.27;;;1.70;;
13218;SDS011;6674;49.152;11.918;2023-07-13T08:11:49;2.57;;;1.53;;
13218;SDS011;6674;49.152;11.918;2023-07-13T08:14:17;2.53;;;1.87;;
13218;SDS011;6674;49.152;11.918;2023-07-13T08:16:44;2.50;;;1.63;;
13218;SDS011;6674;49.152;11.918;2023-07-13T08:19:10;1.90;;;1.70;;
13218;SDS011;6674;49.152;11.918;2023-07-13T08:21:37;2.83;;;2.00;;
13218;SDS011;6674;49.152;11.918;2023-07-13T08:24:04;2.03;;;1.60;;
13218;SDS011;6674;49.152;11.918;2023-07-13T08:26:31;1.77;;;1.57;;
13218;SDS011;6674;49.152;11.918;2023-07-13T08:28:59;2.63;;;1.97;;
13218;SDS011;6674;49.152;11.918;2023-07-13T08:31:26;2.27;;;1.90;;
13218;SDS011;6674;49.152;11.918;2023-07-13T08:33:52;2.40;;;1.63;;
13218;SDS011;6674;49.152;11.918;2023-07-13T08:36:19;2.50;;;1.50;;
13218;SDS011;6674;49.152;11.918;2023-07-13T08:38:46;1.50;;;1.20;;
13218;SDS011;6674;49.152;11.918;2023-07-13T08:41:13;2.27;;;1.63;;
13218;SDS011;6674;49.152;11.918;2023-07-13T08:43:42;2.50;;;1.70;;
13218;SDS011;6674;49.152;11.918;2023-07-13T08:46:16;2.87;;;1.73;;
13218;SDS011;6674;49.152;11.918;2023-07-13T08:48:48;3.30;;;1.90;;
13218;SDS011;6674;49.152;11.918;2023-07-13T08:54:12;2.37;;;1.37;;
13218;SDS011;6674;49.152;11.918;2023-07-13T08:56:44;1.63;;;1.53;;
13218;SDS011;6674;49.152;11.918;2023-07-13T08:59:13;3.73;;;1.47;;
13218;SDS011;6674;49.152;11.918;2023-07-13T09:01:49;3.37;;;1.60;;
13218;SDS011;6674;49.152;11.918;2023-07-13T09:04:26;2.90;;;1.50;;
13218;SDS011;6674;49.152;11.918;2023-07-13T09:06:58;1.97;;;1.30;;
13218;SDS011;6674;49.152;11.918;2023-07-13T09:09:32;2.43;;;1.60;;
13218;SDS011;6674;49.152;11.918;2023-07-13T09:12:12;2.33;;;1.57;;
13218;SDS011;6674;49.152;11.918;2023-07-13T09:14:45;2.93;;;1.60;;
13218;SDS011;6674;49.152;11.918;2023-07-13T09:17:18;2.90;;;1.70;;
13218;SDS011;6674;49.152;11.918;2023-07-13T09:19:49;2.87;;;1.70;;
13218;SDS011;6674;49.152;11.918;2023-07-13T09:22:21;1.47;;;1.30;;
13218;SDS011;6674;49.152;11.918;2023-07-13T09:24:52;3.03;;;1.40;;
13218;SDS011;6674;49.152;11.918;2023-07-13T09:27:24;3.00;;;1.50;;
13218;SDS011;6674;49.152;11.918;2023-07-13T09:29:58;2.77;;;1.50;;
13218;SDS011;6674;49.152;11.918;2023-07-13T09:32:31;3.60;;;1.50;;
13218;SDS011;6674;49.152;11.918;2023-07-13T09:34:59;3.13;;;1.70;;
13218;SDS011;6674;49.152;11.918;2023-07-13T09:37:29;2.37;;;1.83;;
13218;SDS011;6674;49.152;11.918;2023-07-13T09:39:59;3.50;;;1.30;;
13218;SDS011;6674;49.152;11.918;2023-07-13T09:42:30;3.03;;;1.60;;
13218;SDS011;6674;49.152;11.918;2023-07-13T09:44:59;2.93;;;1.70;;
13218;SDS011;6674;49.152;11.918;2023-07-13T09:47:30;3.57;;;1.63;;
13218;SDS011;6674;49.152;11.918;2023-07-13T09:49:59;2.50;;;1.83;;
13218;SDS011;6674;49.152;11.918;2023-07-13T09:52:27;1.57;;;1.47;;
13218;SDS011;6674;49.152;11.918;2023-07-13T09:55:12;3.13;;;1.87;;
13218;SDS011;6674;49.152;11.918;2023-07-13T09:57:49;1.63;;;1.50;;
13218;SDS011;6674;49.152;11.918;2023-07-13T10:00:21;2.93;;;1.40;;
13218;SDS011;6674;49.152;11.918;2023-07-13T10:02:59;3.70;;;1.80;;
13218;SDS011;6674;49.152;11.918;2023-07-13T10:05:36;2.20;;;1.70;;
13218;SDS011;6674;49.152;11.918;2023-07-13T10:08:04;2.43;;;1.50;;
13218;SDS011;6674;49.152;11.918;2023-07-13T10:10:32;2.77;;;1.50;;
13218;SDS011;6674;49.152;11.918;2023-07-13T10:13:01;3.23;;;1.50;;
13218;SDS011;6674;49.152;11.918;2023-07-13T10:15:29;1.40;;;1.30;;
13218;SDS011;6674;49.152;11.918;2023-07-13T10:17:56;2.10;;;1.40;;
13218;SDS011;6674;49.152;11.918;2023-07-13T10:20:25;2.07;;;1.60;;
13218;SDS011;6674;49.152;11.918;2023-07-13T10:22:54;2.17;;;1.47;;
13218;SDS011;6674;49.152;11.918;2023-07-13T10:25:25;1.97;;;1.27;;
13218;SDS011;6674;49.152;11.918;2023-07-13T10:27:54;2.47;;;1.37;;
13218;SDS011;6674;49.152;11.918;2023-07-13T10:30:25;1.37;;;1.20;;
13218;SDS011;6674;49.152;11.918;2023-07-13T10:32:57;1.47;;;1.27;;
13218;SDS011;6674;49.152;11.918;2023-07-13T10:35:27;1.27;;;1.10;;
13218;SDS011;6674;49.152;11.918;2023-07-13T10:37:57;2.57;;;1.57;;
13218;SDS011;6674;49.152;11.918;2023-07-13T10:40:32;2.23;;;1.00;;
13218;SDS011;6674;49.152;11.918;2023-07-13T10:43:04;1.73;;;1.60;;
13218;SDS011;6674;49.152;11.918;2023-07-13T10:45:36;1.37;;;1.27;;
13218;SDS011;6674;49.152;11.918;2023-07-13T10:48:04;2.47;;;1.47;;
13218;SDS011;6674;49.152;11.918;2023-07-13T10:50:34;1.47;;;1.10;;
13218;SDS011;6674;49.152;11.918;2023-07-13T10:53:17;1.57;;;1.30;;
13218;SDS011;6674;49.152;11.918;2023-07-13T10:55:54;1.40;;;1.30;;
13218;SDS011;6674;49.152;11.918;2023-07-13T10:58:28;2.50;;;1.13;;
13218;SDS011;6674;49.152;11.918;2023-07-13T11:01:00;1.50;;;1.20;;
13218;SDS011;6674;49.152;11.918;2023-07-13T11:03:33;1.97;;;1.13;;
13218;SDS011;6674;49.152;11.918;2023-07-13T11:06:08;1.47;;;1.23;;
13218;SDS011;6674;49.152;11.918;2023-07-13T11:08:38;1.20;;;0.90;;
13218;SDS011;6674;49.152;11.918;2023-07-13T11:11:37;2.00;;;1.00;;
13218;SDS011;6674;49.152;11.918;2023-07-13T11:14:05;1.37;;;1.00;;
13218;SDS011;6674;49.152;11.918;2023-07-13T11:16:51;3.10;;;1.40;;
13218;SDS011;6674;49.152;11.918;2023-07-13T11:22:13;1.73;;;1.10;;
13218;SDS011;6674;49.152;11.918;2023-07-13T11:24:48;1.27;;;0.93;;
13218;SDS011;6674;49.152;11.918;2023-07-13T11:27:40;2.10;;;1.17;;
13218;SDS011;6674;49.152;11.918;2023-07-13T11:30:20;1.43;;;1.23;;
13218;SDS011;6674;49.152;11.918;2023-07-13T11:32:50;2.10;;;1.10;;
13218;SDS011;6674;49.152;11.918;2023-07-13T11:35:21;1.90;;;1.20;;
13218;SDS011;6674;49.152;11.918;2023-07-13T11:37:54;2.13;;;1.33;;
13218;SDS011;6674;49.152;11.918;2023-07-13T11:40:21;1.30;;;1.07;;
13218;SDS011;6674;49.152;11.918;2023-07-13T11:42:52;1.83;;;0.97;;
13218;SDS011;6674;49.152;11.918;2023-07-13T11:45:19;2.50;;;1.17;;
13218;SDS011;6674;49.152;11.918;2023-07-13T11:47:48;1.37;;;1.17;;
13218;SDS011;6674;49.152;11.918;2023-07-13T11:50:19;1.40;;;1.30;;
13218;SDS011;6674;49.152;11.918;2023-07-13T11:52:47;1.50;;;1.03;;
13218;SDS011;6674;49.152;11.918;2023-07-13T11:55:18;1.40;;;1.23;;
13218;SDS011;6674;49.152;11.918;2023-07-13T11:57:48;1.60;;;1.10;;
13218;SDS011;6674;49.152;11.918;2023-07-13T12:00:18;2.13;;;1.33;;
13218;SDS011;6674;49.152;11.918;2023-07-13T12:02:48;2.43;;;1.00;;
13218;SDS011;6674;49.152;11.918;2023-07-13T12:05:18;1.50;;;1.03;;
13218;SDS011;6674;49.152;11.918;2023-07-13T12:07:46;1.47;;;1.10;;
13218;SDS011;6674;49.152;11.918;2023-07-13T12:10:18;1.87;;;1.20;;
13218;SDS011;6674;49.152;11.918;2023-07-13T12:12:47;1.10;;;1.00;;
13218;SDS011;6674;49.152;11.918;2023-07-13T12:15:14;0.80;;;0.80;;
13218;SDS011;6674;49.152;11.918;2023-07-13T12:17:41;2.27;;;1.00;;
13218;SDS011;6674;49.152;11.918;2023-07-13T12:22:48;1.60;;;1.20;;
13218;SDS011;6674;49.152;11.918;2023-07-13T12:25:15;1.80;;;1.10;;
13218;SDS011;6674;49.152;11.918;2023-07-13T12:27:47;2.53;;;1.27;;
13218;SDS011;6674;49.152;11.918;2023-07-13T12:30:22;2.13;;;1.23;;
13218;SDS011;6674;49.152;11.918;2023-07-13T12:32:58;2.07;;;1.30;;
13218;SDS011;6674;49.152;11.918;2023-07-13T12:35:27;2.33;;;1.10;;
13218;SDS011;6674;49.152;11.918;2023-07-13T12:37:58;1.60;;;0.80;;
13218;SDS011;6674;49.152;11.918;2023-07-13T12:40:27;1.57;;;0.97;;
13218;SDS011;6674;49.152;11.918;2023-07-13T12:43:00;1.67;;;1.20;;
13218;SDS011;6674;49.152;11.918;2023-07-13T12:45:29;1.50;;;1.00;;
13218;SDS011;6674;49.152;11.918;2023-07-13T12:47:58;1.43;;;0.97;;
13218;SDS011;6674;49.152;11.918;2023-07-13T12:50:30;1.60;;;0.93;;
13218;SDS011;6674;49.152;11.918;2023-07-13T12:53:04;2.60;;;1.40;;
13218;SDS011;6674;49.152;11.918;2023-07-13T12:55:39;1.27;;;0.90;;
13218;SDS011;6674;49.152;11.918;2023-07-13T12:58:13;1.40;;;1.10;;
13218;SDS011;6674;49.152;11.918;2023-07-13T13:00:48;2.00;;;1.20;;
13218;SDS011;6674;49.152;11.918;2023-07-13T13:03:21;1.20;;;0.85;;
13218;SDS011;6674;49.152;11.918;2023-07-13T13:05:56;1.23;;;1.13;;
13218;SDS011;6674;49.152;11.918;2023-07-13T13:08:24;1.60;;;1.00;;
13218;SDS011;6674;49.152;11.918;2023-07-13T13:10:51;2.72;;;1.38;;
13218;SDS011;6674;49.152;11.918;2023-07-13T13:13:19;1.55;;;1.27;;
13218;SDS011;6674;49.152;11.918;2023-07-13T13:15:46;1.50;;;1.05;;
13218;SDS011;6674;49.152;11.918;2023-07-13T13:18:16;2.38;;;1.17;;
13218;SDS011;6674;49.152;11.918;2023-07-13T13:20:44;1.05;;;1.02;;
13218;SDS011;6674;49.152;11.918;2023-07-13T13:23:12;1.27;;;1.03;;
13218;SDS011;6674;49.152;11.918;2023-07-13T13:25:43;1.57;;;1.20;;
13218;SDS011;6674;49.152;11.918;2023-07-13T13:28:14;1.30;;;1.00;;
13218;SDS011;6674;49.152;11.918;2023-07-13T13:30:45;1.93;;;0.90;;
13218;SDS011;6674;49.152;11.918;2023-07-13T13:33:14;1.10;;;1.00;;
13218;SDS011;6674;49.152;11.918;2023-07-13T13:35:42;1.10;;;1.00;;
13218;SDS011;6674;49.152;11.918;2023-07-13T13:38:10;4.80;;;1.50;;
13218;SDS011;6674;49.152;11.918;2023-07-13T13:40:39;2.43;;;1.10;;
13218;SDS011;6674;49.152;11.918;2023-07-13T13:43:14;1.83;;;1.30;;
13218;SDS011;6674;49.152;11.918;2023-07-13T13:45:42;1.05;;;0.90;;
13218;SDS011;6674;49.152;11.918;2023-07-13T13:48:14;1.57;;;1.17;;
13218;SDS011;6674;49.152;11.918;2023-07-13T13:50:43;2.87;;;1.37;;
13218;SDS011;6674;49.152;11.918;2023-07-13T13:53:11;2.33;;;1.23;;
13218;SDS011;6674;49.152;11.918;2023-07-13T13:55:39;1.53;;;1.20;;
13218;SDS011;6674;49.152;11.918;2023-07-13T13:58:07;3.07;;;1.47;;
13218;SDS011;6674;49.152;11.918;2023-07-13T14:00:35;1.77;;;1.30;;
13218;SDS011;6674;49.152;11.918;2023-07-13T14:03:03;1.97;;;1.03;;
13218;SDS011;6674;49.152;11.918;2023-07-13T14:05:33;3.13;;;1.45;;
13218;SDS011;6674;49.152;11.918;2023-07-13T14:07:59;3.13;;;1.40;;
13218;SDS011;6674;49.152;11.918;2023-07-13T14:10:26;3.07;;;1.17;;
13218;SDS011;6674;49.152;11.918;2023-07-13T14:12:55;2.57;;;1.10;;
13218;SDS011;6674;49.152;11.918;2023-07-13T14:15:24;2.13;;;1.00;;
13218;SDS011;6674;49.152;11.918;2023-07-13T14:17:52;2.10;;;1.30;;
13218;SDS011;6674;49.152;11.918;2023-07-13T14:20:20;1.23;;;1.13;;
13218;SDS011;6674;49.152;11.918;2023-07-13T14:22:50;2.13;;;1.00;;
13218;SDS011;6674;49.152;11.918;2023-07-13T14:25:18;1.30;;;1.20;;
13218;SDS011;6674;49.152;11.918;2023-07-13T14:27:46;2.05;;;1.13;;
13218;SDS011;6674;49.152;11.918;2023-07-13T14:30:16;1.53;;;1.20;;
13218;SDS011;6674;49.152;11.918;2023-07-13T14:32:45;2.42;;;1.10;;
13218;SDS011;6674;49.152;11.918;2023-07-13T14:35:14;1.60;;;1.20;;
13218;SDS011;6674;49.152;11.918;2023-07-13T14:37:43;1.43;;;1.17;;
13218;SDS011;6674;49.152;11.918;2023-07-13T14:40:14;2.47;;;1.20;;
13218;SDS011;6674;49.152;11.918;2023-07-13T14:42:42;2.23;;;1.10;;
13218;SDS011;6674;49.152;11.918;2023-07-13T14:45:12;4.87;;;1.43;;
13218;SDS011;6674;49.152;11.918;2023-07-13T14:47:40;1.53;;;1.13;;
13218;SDS011;6674;49.152;11.918;2023-07-13T14:50:11;1.63;;;1.20;;
13218;SDS011;6674;49.152;11.918;2023-07-13T14:52:41;2.00;;;1.40;;
13218;SDS011;6674;49.152;11.918;2023-07-13T14:55:09;1.37;;;1.20;;
13218;SDS011;6674;49.152;11.918;2023-07-13T14:57:38;3.67;;;1.40;;
13218;SDS011;6674;49.152;11.918;2023-07-13T15:00:07;1.97;;;1.00;;
13218;SDS011;6674;49.152;11.918;2023-07-13T15:02:41;1.13;;;1.03;;
13218;SDS011;6674;49.152;11.918;2023-07-13T15:05:14;1.00;;;0.90;;
13218;SDS011;6674;49.152;11.918;2023-07-13T15:07:43;1.27;;;1.10;;
13218;SDS011;6674;49.152;11.918;2023-07-13T15:10:14;1.80;;;1.00;;
13218;SDS011;6674;49.152;11.918;2023-07-13T15:12:43;1.30;;;0.93;;